sensor_id;sensor_type;location;lat;lon;timestamp;temperature;humidity
21001;DHT22;10658;50.920;12.238;2023-03-03T00:00:17;0.20;99.90
21001;DHT22;10658;50.920;12.238;2023-03-03T00:04:18;0.20;99.90
21001;DHT22;10658;50.920;12.238;2023-03-03T00:08:22;0.10;99.90
21001;DHT22;10658;50.920;12.238;2023-03-03T00:12:28;0.10;99.90
21001;DHT22;10658;50.920;12.238;2023-03-03T00:16:49;0.10;99.90
21001;DHT22;10658;50.920;12.238;2023-03-03T00:20:56;0.00;99.90
21001;DHT22;10658;50.920;12.238;2023-03-03T00:25:27;0.00;99.90
21001;DHT22;10658;50.920;12.238;2023-03-03T00:33:44;0.00;99.90
21001;DHT22;10658;50.920;12.238;2023-03-03T00:37:52;0.00;99.90
21001;DHT22;10658;50.920;12.238;2023-03-03T00:41:56;0.00;99.90
21001;DHT22;10658;50.920;12.238;2023-03-03T00:45:58;0.00;99.90
21001;DHT22;10658;50.920;12.238;2023-03-03T00:54:09;0.00;99.90
21001;DHT22;10658;50.920;12.238;2023-03-03T00:58:11;0.00;99.90
21001;DHT22;10658;50.920;12.238;2023-03-03T01:02:18;-0.10;99.90
21001;DHT22;10658;50.920;12.238;2023-03-03T01:06:19;-0.10;99.90
21001;DHT22;10658;50.920;12.238;2023-03-03T01:10:22;-0.10;99.90
21001;DHT22;10658;50.920;12.238;2023-03-03T01:14:24;-0.10;99.90
21001;DHT22;10658;50.920;12.238;2023-03-03T01:18:28;-0.20;99.90
21001;DHT22;10658;50.920;12.238;2023-03-03T01:22:30;-0.20;99.90
21001;DHT22;10658;50.920;12.238;2023-03-03T01:26:33;-0.20;99.90
21001;DHT22;10658;50.920;12.238;2023-03-03T01:30:38;-0.10;99.90
21001;DHT22;10658;50.920;12.238;2023-03-03T01:35:04;-0.20;99.90
21001;DHT22;10658;50.920;12.238;2023-03-03T01:39:11;-0.20;99.90
21001;DHT22;10658;50.920;12.238;2023-03-03T01:43:17;-0.20;99.90
21001;DHT22;10658;50.920;12.238;2023-03-03T01:47:27;-0.30;99.90
21001;DHT22;10658;50.920;12.238;2023-03-03T01:51:38;-0.20;99.90
21001;DHT22;10658;50.920;12.238;2023-03-03T01:55:46;-0.30;99.90
21001;DHT22;10658;50.920;12.238;2023-03-03T01:59:50;-0.40;99.90
21001;DHT22;10658;50.920;12.238;2023-03-03T02:03:53;-0.40;99.90
21001;DHT22;10658;50.920;12.238;2023-03-03T02:07:59;-0.40;99.90
21001;DHT22;10658;50.920;12.238;2023-03-03T02:12:06;-0.50;99.90
21001;DHT22;10658;50.920;12.238;2023-03-03T02:16:08;-0.40;99.90
21001;DHT22;10658;50.920;12.238;2023-03-03T02:20:41;-0.50;99.90
21001;DHT22;10658;50.920;12.238;2023-03-03T02:24:56;-0.60;99.90
21001;DHT22;10658;50.920;12.238;2023-03-03T02:28:59;-0.60;99.90
21001;DHT22;10658;50.920;12.238;2023-03-03T02:33:03;-0.70;99.90
21001;DHT22;10658;50.920;12.238;2023-03-03T02:37:09;-0.70;99.90
21001;DHT22;10658;50.920;12.238;2023-03-03T02:45:44;-0.60;99.90
21001;DHT22;10658;50.920;12.238;2023-03-03T02:49:45;-0.60;99.90
21001;DHT22;10658;50.920;12.238;2023-03-03T02:53:49;-0.60;99.90
21001;DHT22;10658;50.920;12.238;2023-03-03T02:57:52;-0.60;99.90
21001;DHT22;10658;50.920;12.238;2023-03-03T03:01:53;-0.60;99.90
21001;DHT22;10658;50.920;12.238;2023-03-03T03:05:57;-0.60;99.90
21001;DHT22;10658;50.920;12.238;2023-03-03T03:09:59;-0.60;99.90
21001;DHT22;10658;50.920;12.238;2023-03-03T03:14:08;-0.70;99.90
21001;DHT22;10658;50.920;12.238;2023-03-03T03:18:10;-0.60;99.90
21001;DHT22;10658;50.920;12.238;2023-03-03T03:22:31;-0.60;99.90
21001;DHT22;10658;50.920;12.238;2023-03-03T03:26:33;-0.60;99.90
21001;DHT22;10658;50.920;12.238;2023-03-03T03:30:35;-0.70;99.90
21001;DHT22;10658;50.920;12.238;2023-03-03T03:34:37;-0.80;99.90
21001;DHT22;10658;50.920;12.238;2023-03-03T03:38:39;-0.80;99.90
21001;DHT22;10658;50.920;12.238;2023-03-03T03:42:42;-0.80;99.90
21001;DHT22;10658;50.920;12.238;2023-03-03T03:46:44;-0.80;99.90
21001;DHT22;10658;50.920;12.238;2023-03-03T03:50:47;-0.80;99.90
21001;DHT22;10658;50.920;12.238;2023-03-03T03:54:52;-0.80;99.90
21001;DHT22;10658;50.920;12.238;2023-03-03T03:58:54;-0.90;99.90
21001;DHT22;10658;50.920;12.238;2023-03-03T04:02:57;-0.80;99.90
21001;DHT22;10658;50.920;12.238;2023-03-03T04:06:59;-0.80;99.90
21001;DHT22;10658;50.920;12.238;2023-03-03T04:11:02;-0.80;99.90
21001;DHT22;10658;50.920;12.238;2023-03-03T04:15:08;-0.70;99.90
21001;DHT22;10658;50.920;12.238;2023-03-03T04:19:30;-0.80;99.90
21001;DHT22;10658;50.920;12.238;2023-03-03T04:23:32;-0.80;99.90
21001;DHT22;10658;50.920;12.238;2023-03-03T04:27:36;-0.80;99.90
21001;DHT22;10658;50.920;12.238;2023-03-03T04:31:39;-0.80;99.90
21001;DHT22;10658;50.920;12.238;2023-03-03T04:35:45;-0.90;99.90
21001;DHT22;10658;50.920;12.238;2023-03-03T04:39:48;-0.80;99.90
21001;DHT22;10658;50.920;12.238;2023-03-03T04:43:53;-0.80;99.90
21001;DHT22;10658;50.920;12.238;2023-03-03T04:47:59;-0.80;99.90
21001;DHT22;10658;50.920;12.238;2023-03-03T04:52:05;-0.80;99.90
21001;DHT22;10658;50.920;12.238;2023-03-03T04:56:07;-0.80;99.90
21001;DHT22;10658;50.920;12.238;2023-03-03T05:00:12;-0.90;99.90
21001;DHT22;10658;50.920;12.238;2023-03-03T05:04:13;-0.90;99.90
21001;DHT22;10658;50.920;12.238;2023-03-03T05:08:16;-0.90;99.90
21001;DHT22;10658;50.920;12.238;2023-03-03T05:12:17;-0.90;99.90
21001;DHT22;10658;50.920;12.238;2023-03-03T05:16:19;-0.90;99.90
21001;DHT22;10658;50.920;12.238;2023-03-03T05:20:24;-0.90;99.90
21001;DHT22;10658;50.920;12.238;2023-03-03T05:24:27;-0.90;99.90
21001;DHT22;10658;50.920;12.238;2023-03-03T05:28:30;-0.90;99.90
21001;DHT22;10658;50.920;12.238;2023-03-03T05:32:32;-0.90;99.90
21001;DHT22;10658;50.920;12.238;2023-03-03T05:36:34;-1.00;99.90
21001;DHT22;10658;50.920;12.238;2023-03-03T05:40:38;-0.90;99.90
21001;DHT22;10658;50.920;12.238;2023-03-03T05:44:40;-0.90;99.90
21001;DHT22;10658;50.920;12.238;2023-03-03T05:48:42;-0.90;99.90
21001;DHT22;10658;50.920;12.238;2023-03-03T05:52:50;-0.90;99.90
21001;DHT22;10658;50.920;12.238;2023-03-03T05:56:51;-0.90;99.90
21001;DHT22;10658;50.920;12.238;2023-03-03T06:00:54;-0.90;99.90
21001;DHT22;10658;50.920;12.238;2023-03-03T06:04:55;-0.90;99.90
21001;DHT22;10658;50.920;12.238;2023-03-03T06:08:56;-0.90;99.90
21001;DHT22;10658;50.920;12.238;2023-03-03T06:12:57;-0.90;99.90
21001;DHT22;10658;50.920;12.238;2023-03-03T06:17:21;-0.90;99.90
21001;DHT22;10658;50.920;12.238;2023-03-03T06:21:22;-0.90;99.90
21001;DHT22;10658;50.920;12.238;2023-03-03T06:25:23;-0.90;99.90
21001;DHT22;10658;50.920;12.238;2023-03-03T06:29:26;-0.90;99.90
21001;DHT22;10658;50.920;12.238;2023-03-03T06:33:28;-0.80;99.90
21001;DHT22;10658;50.920;12.238;2023-03-03T06:37:29;-0.80;99.90
21001;DHT22;10658;50.920;12.238;2023-03-03T06:41:31;-0.80;99.90
21001;DHT22;10658;50.920;12.238;2023-03-03T06:45:34;-0.90;99.90
21001;DHT22;10658;50.920;12.238;2023-03-03T06:49:36;-0.90;99.90
21001;DHT22;10658;50.920;12.238;2023-03-03T06:54:01;-1.00;99.90
21001;DHT22;10658;50.920;12.238;2023-03-03T06:58:19;-1.00;99.90
21001;DHT22;10658;50.920;12.238;2023-03-03T07:02:21;-1.00;99.90
21001;DHT22;10658;50.920;12.238;2023-03-03T07:06:24;-1.00;99.90
21001;DHT22;10658;50.920;12.238;2023-03-03T07:10:29;-1.00;99.90
21001;DHT22;10658;50.920;12.238;2023-03-03T07:14:31;-1.00;99.90
21001;DHT22;10658;50.920;12.238;2023-03-03T07:18:35;-0.90;99.90
21001;DHT22;10658;50.920;12.238;2023-03-03T07:22:40;-0.90;99.90
21001;DHT22;10658;50.920;12.238;2023-03-03T07:26:57;-0.80;99.90
21001;DHT22;10658;50.920;12.238;2023-03-03T07:35:43;-0.70;99.90
21001;DHT22;10658;50.920;12.238;2023-03-03T07:39:49;-0.60;99.90
21001;DHT22;10658;50.920;12.238;2023-03-03T07:52:42;-0.80;99.90
21001;DHT22;10658;50.920;12.238;2023-03-03T07:56:45;-0.80;99.90
21001;DHT22;10658;50.920;12.238;2023-03-03T08:05:38;-0.80;99.90
21001;DHT22;10658;50.920;12.238;2023-03-03T08:13:45;-0.70;99.90
21001;DHT22;10658;50.920;12.238;2023-03-03T08:17:48;-0.70;99.90
21001;DHT22;10658;50.920;12.238;2023-03-03T08:22:00;-0.80;99.90
21001;DHT22;10658;50.920;12.238;2023-03-03T08:26:05;-0.70;99.90
21001;DHT22;10658;50.920;12.238;2023-03-03T08:30:07;-0.60;99.90
21001;DHT22;10658;50.920;12.238;2023-03-03T08:34:10;-0.60;99.90
21001;DHT22;10658;50.920;12.238;2023-03-03T08:38:14;-0.50;99.90
21001;DHT22;10658;50.920;12.238;2023-03-03T08:42:16;-0.50;99.90
21001;DHT22;10658;50.920;12.238;2023-03-03T08:46:19;-0.50;99.90
21001;DHT22;10658;50.920;12.238;2023-03-03T08:50:20;-0.50;99.90
21001;DHT22;10658;50.920;12.238;2023-03-03T08:54:22;-0.50;99.90
21001;DHT22;10658;50.920;12.238;2023-03-03T08:58:26;-0.40;99.90
21001;DHT22;10658;50.920;12.238;2023-03-03T09:02:28;-0.40;99.90
21001;DHT22;10658;50.920;12.238;2023-03-03T09:06:30;-0.40;99.90
21001;DHT22;10658;50.920;12.238;2023-03-03T09:10:32;-0.60;99.90
21001;DHT22;10658;50.920;12.238;2023-03-03T09:14:35;-0.60;99.90
21001;DHT22;10658;50.920;12.238;2023-03-03T09:18:37;-0.50;99.90
21001;DHT22;10658;50.920;12.238;2023-03-03T09:22:38;-0.50;99.90
21001;DHT22;10658;50.920;12.238;2023-03-03T09:26:46;-0.60;99.90
21001;DHT22;10658;50.920;12.238;2023-03-03T09:30:53;-0.70;99.90
21001;DHT22;10658;50.920;12.238;2023-03-03T09:34:55;-0.70;99.90
21001;DHT22;10658;50.920;12.238;2023-03-03T09:39:00;-0.70;99.90
21001;DHT22;10658;50.920;12.238;2023-03-03T09:43:36;-0.70;99.90
21001;DHT22;10658;50.920;12.238;2023-03-03T09:52:19;-0.70;99.90
21001;DHT22;10658;50.920;12.238;2023-03-03T09:56:38;-0.70;99.90
21001;DHT22;10658;50.920;12.238;2023-03-03T10:01:12;-0.80;99.90
21001;DHT22;10658;50.920;12.238;2023-03-03T10:18:23;-0.80;99.90
21001;DHT22;10658;50.920;12.238;2023-03-03T10:27:11;-0.70;99.90
21001;DHT22;10658;50.920;12.238;2023-03-03T10:31:29;-0.60;99.90
21001;DHT22;10658;50.920;12.238;2023-03-03T10:36:15;-0.70;99.90
21001;DHT22;10658;50.920;12.238;2023-03-03T10:57:36;-0.60;99.90
21001;DHT22;10658;50.920;12.238;2023-03-03T11:01:55;-0.70;99.90
21001;DHT22;10658;50.920;12.238;2023-03-03T11:06:04;-0.70;99.90
21001;DHT22;10658;50.920;12.238;2023-03-03T11:36:43;-0.20;99.90
21001;DHT22;10658;50.920;12.238;2023-03-03T11:45:44;0.00;99.90
21001;DHT22;10658;50.920;12.238;2023-03-03T11:54:44;0.30;99.90
21001;DHT22;10658;50.920;12.238;2023-03-03T12:03:10;0.30;99.90
21001;DHT22;10658;50.920;12.238;2023-03-03T12:33:57;1.50;99.90
21001;DHT22;10658;50.920;12.238;2023-03-03T12:46:44;1.80;99.90
21001;DHT22;10658;50.920;12.238;2023-03-03T13:25:52;2.10;99.90
21001;DHT22;10658;50.920;12.238;2023-03-03T13:38:51;2.00;99.90
21001;DHT22;10658;50.920;12.238;2023-03-03T13:43:30;2.00;99.90
21001;DHT22;10658;50.920;12.238;2023-03-03T13:52:11;2.00;99.90
21001;DHT22;10658;50.920;12.238;2023-03-03T14:00:56;2.20;99.90
21001;DHT22;10658;50.920;12.238;2023-03-03T14:05:03;2.20;99.90
21001;DHT22;10658;50.920;12.238;2023-03-03T14:14:23;2.00;99.90
21001;DHT22;10658;50.920;12.238;2023-03-03T14:18:39;2.00;99.90
21001;DHT22;10658;50.920;12.238;2023-03-03T14:22:54;1.80;99.90
21001;DHT22;10658;50.920;12.238;2023-03-03T14:27:03;1.80;99.90
21001;DHT22;10658;50.920;12.238;2023-03-03T14:31:28;1.80;99.90
21001;DHT22;10658;50.920;12.238;2023-03-03T14:35:38;1.90;99.90
21001;DHT22;10658;50.920;12.238;2023-03-03T14:40:12;1.70;99.90
21001;DHT22;10658;50.920;12.238;2023-03-03T14:44:28;1.80;99.90
21001;DHT22;10658;50.920;12.238;2023-03-03T14:48:50;1.90;99.90
21001;DHT22;10658;50.920;12.238;2023-03-03T15:01:47;1.80;99.90
21001;DHT22;10658;50.920;12.238;2023-03-03T15:05:58;1.70;99.90
21001;DHT22;10658;50.920;12.238;2023-03-03T15:10:02;1.60;99.90
21001;DHT22;10658;50.920;12.238;2023-03-03T15:14:14;1.50;99.90
21001;DHT22;10658;50.920;12.238;2023-03-03T15:18:16;1.50;99.90
21001;DHT22;10658;50.920;12.238;2023-03-03T15:27:03;1.50;99.90
21001;DHT22;10658;50.920;12.238;2023-03-03T15:36:24;1.60;99.90
21001;DHT22;10658;50.920;12.238;2023-03-03T15:40:29;1.50;99.90
21001;DHT22;10658;50.920;12.238;2023-03-03T15:53:33;1.40;99.90
21001;DHT22;10658;50.920;12.238;2023-03-03T16:23:48;1.10;99.90
21001;DHT22;10658;50.920;12.238;2023-03-03T16:28:03;1.20;99.90
21001;DHT22;10658;50.920;12.238;2023-03-03T16:40:57;1.20;99.90
21001;DHT22;10658;50.920;12.238;2023-03-03T16:49:53;1.30;99.90
21001;DHT22;10658;50.920;12.238;2023-03-03T16:54:07;1.20;99.90
21001;DHT22;10658;50.920;12.238;2023-03-03T17:03:41;1.00;99.90
21001;DHT22;10658;50.920;12.238;2023-03-03T17:08:04;0.90;99.90
21001;DHT22;10658;50.920;12.238;2023-03-03T17:20:58;0.90;99.90
21001;DHT22;10658;50.920;12.238;2023-03-03T17:25:23;0.80;99.90
21001;DHT22;10658;50.920;12.238;2023-03-03T17:43:15;0.80;99.90
21001;DHT22;10658;50.920;12.238;2023-03-03T17:52:29;0.70;99.90
21001;DHT22;10658;50.920;12.238;2023-03-03T18:11:10;0.80;99.90
21001;DHT22;10658;50.920;12.238;2023-03-03T18:28:48;0.80;99.90
21001;DHT22;10658;50.920;12.238;2023-03-03T18:32:59;0.90;99.90
21001;DHT22;10658;50.920;12.238;2023-03-03T18:41:25;0.90;99.90
21001;DHT22;10658;50.920;12.238;2023-03-03T18:49:55;0.80;99.90
21001;DHT22;10658;50.920;12.238;2023-03-03T19:02:34;0.80;99.90
21001;DHT22;10658;50.920;12.238;2023-03-03T19:10:51;0.90;99.90
21001;DHT22;10658;50.920;12.238;2023-03-03T19:14:56;0.90;99.90
21001;DHT22;10658;50.920;12.238;2023-03-03T19:19:00;0.90;99.90
21001;DHT22;10658;50.920;12.238;2023-03-03T19:23:16;0.90;99.90
21001;DHT22;10658;50.920;12.238;2023-03-03T19:37:00;0.90;99.90
21001;DHT22;10658;50.920;12.238;2023-03-03T19:55:17;0.80;99.90
21001;DHT22;10658;50.920;12.238;2023-03-03T19:59:57;0.80;99.90
21001;DHT22;10658;50.920;12.238;2023-03-03T20:09:01;0.70;99.90
21001;DHT22;10658;50.920;12.238;2023-03-03T20:17:51;0.70;99.90
21001;DHT22;10658;50.920;12.238;2023-03-03T20:22:01;0.70;99.90
21001;DHT22;10658;50.920;12.238;2023-03-03T20:26:14;0.70;99.90
21001;DHT22;10658;50.920;12.238;2023-03-03T20:39:03;0.70;99.90
21001;DHT22;10658;50.920;12.238;2023-03-03T20:48:14;0.60;99.90
21001;DHT22;10658;50.920;12.238;2023-03-03T20:57:11;0.60;99.90
21001;DHT22;10658;50.920;12.238;2023-03-03T21:06:12;0.50;99.90
21001;DHT22;10658;50.920;12.238;2023-03-03T21:10:21;0.50;99.90
21001;DHT22;10658;50.920;12.238;2023-03-03T21:14:59;0.50;99.90
21001;DHT22;10658;50.920;12.238;2023-03-03T21:19:10;0.40;99.90
21001;DHT22;10658;50.920;12.238;2023-03-03T21:23:13;0.50;99.90
21001;DHT22;10658;50.920;12.238;2023-03-03T21:27:32;0.40;99.90
21001;DHT22;10658;50.920;12.238;2023-03-03T21:31:46;0.40;99.90
21001;DHT22;10658;50.920;12.238;2023-03-03T21:35:57;0.40;99.90
21001;DHT22;10658;50.920;12.238;2023-03-03T21:40:31;0.40;99.90
21001;DHT22;10658;50.920;12.238;2023-03-03T21:44:49;0.40;99.90
21001;DHT22;10658;50.920;12.238;2023-03-03T21:48:51;0.40;99.90
21001;DHT22;10658;50.920;12.238;2023-03-03T21:52:54;0.40;99.90
21001;DHT22;10658;50.920;12.238;2023-03-03T21:56:56;0.40;99.90
21001;DHT22;10658;50.920;12.238;2023-03-03T22:00:57;0.40;99.90
21001;DHT22;10658;50.920;12.238;2023-03-03T22:04:59;0.40;99.90
21001;DHT22;10658;50.920;12.238;2023-03-03T22:09:03;0.40;99.90
21001;DHT22;10658;50.920;12.238;2023-03-03T22:13:08;0.40;99.90
21001;DHT22;10658;50.920;12.238;2023-03-03T22:17:14;0.40;99.90
21001;DHT22;10658;50.920;12.238;2023-03-03T22:21:16;0.40;99.90
21001;DHT22;10658;50.920;12.238;2023-03-03T22:25:18;0.40;99.90
21001;DHT22;10658;50.920;12.238;2023-03-03T22:29:19;0.40;99.90
21001;DHT22;10658;50.920;12.238;2023-03-03T22:33:23;0.40;99.90
21001;DHT22;10658;50.920;12.238;2023-03-03T22:37:26;0.40;99.90
21001;DHT22;10658;50.920;12.238;2023-03-03T22:41:28;0.40;99.90
21001;DHT22;10658;50.920;12.238;2023-03-03T22:45:34;0.40;99.90
21001;DHT22;10658;50.920;12.238;2023-03-03T22:49:39;0.40;99.90
21001;DHT22;10658;50.920;12.238;2023-03-03T22:53:41;0.50;99.90
21001;DHT22;10658;50.920;12.238;2023-03-03T22:57:42;0.50;99.90
21001;DHT22;10658;50.920;12.238;2023-03-03T23:01:45;0.50;99.90
21001;DHT22;10658;50.920;12.238;2023-03-03T23:05:51;0.50;99.90
21001;DHT22;10658;50.920;12.238;2023-03-03T23:09:55;0.50;99.90
21001;DHT22;10658;50.920;12.238;2023-03-03T23:13:57;0.50;99.90
21001;DHT22;10658;50.920;12.238;2023-03-03T23:17:59;0.50;99.90
21001;DHT22;10658;50.920;12.238;2023-03-03T23:22:02;0.50;99.90
21001;DHT22;10658;50.920;12.238;2023-03-03T23:26:04;0.50;99.90
21001;DHT22;10658;50.920;12.238;2023-03-03T23:30:13;0.50;99.90
21001;DHT22;10658;50.920;12.238;2023-03-03T23:34:15;0.50;99.90
21001;DHT22;10658;50.920;12.238;2023-03-03T23:38:18;0.60;99.90
21001;DHT22;10658;50.920;12.238;2023-03-03T23:42:25;0.60;99.90
21001;DHT22;10658;50.920;12.238;2023-03-03T23:46:31;0.60;99.90
21001;DHT22;10658;50.920;12.238;2023-03-03T23:50:35;0.60;99.90
21001;DHT22;10658;50.920;12.238;2023-03-03T23:54:56;0.60;99.90
21001;DHT22;10658;50.920;12.238;2023-03-03T23:58:58;0.60;99.90
